Hovedside
METAR-TAF:

METAR-TAF

Lufthavner :

Kronoby lufthavn

Karleby, Finland

breddegrad: 63-43N, lengdegrad: 023-09E, høyde over havet: 25 m

Gjeldene værobservasjon

Denne rapporten ble laget for 38 minutter siden, klokken 19:50 UTC
Vind 5 kt fra Vest-nordvest, skiftende mellom Vest og Nord-nordvest
Temperatur 2°C
Luftfuktighet 100%
Trykk 1008 hPa
Sikt 10 km eller mer
Overskyet i en høyde av 700 ft

METAR: EFKK 141950Z AUTO 30005KT 270V340 9999 OVC007 02/02 Q1008

Tid: 22:28 (20:28 UTC)

Varsel

Denne rapporten ble laget for 2 timer og 51 minutter siden, klokken 17:37 UTC
Varsel gyldig fra 14. klokken 18 UTC til 14. klokken 24 UTC
Vind 5 kt fra Nord
Sikt: 3000 m
Brutte skyer i en høyde av 500 ft
lett regn, duskregn
Blir
fra 14. klokken 18 UTC til 14. klokken 20 UTC
Sikt 10 km eller mer
Brutte skyer i en høyde av 800 ft

TAF: EFKK 141737Z 1418/1424 35005KT 3000 -RADZ BKN005 BECMG 1418/1420 9999 NSW BKN008

Værobservasjoner og værvarsel for over 4000 flyplasser (METAR- og TAF-rapporter).

Tilgjengelige stasjoner er representert av de røde og gule prikkene på kartet.

Hold musepekeren over prikken for å se navnet på stasjonen.

Klikk så for å se værobservasjoner og -varsler.

For å forandre kartet kan du klikke på den grønne knappen med svart kryss for å zoome inn, på den grønne knappen med strek for å zoome ut, eller på de grønne pilene for å se tilstøtende kart.


METAR-TAF: